sensor_id;sensor_type;location;lat;lon;timestamp;pressure;altitude;pressure_sealevel;temperature
56286;BMP180;42191;47.562;9.686;2022-08-19T00:01:40;96513.00;;;23.50
56286;BMP180;42191;47.562;9.686;2022-08-19T00:04:09;96518.00;;;23.50
56286;BMP180;42191;47.562;9.686;2022-08-19T00:06:39;96512.00;;;23.40
56286;BMP180;42191;47.562;9.686;2022-08-19T00:09:07;96501.00;;;23.40
56286;BMP180;42191;47.562;9.686;2022-08-19T00:11:34;96499.00;;;23.40
56286;BMP180;42191;47.562;9.686;2022-08-19T00:14:03;96491.00;;;23.40
56286;BMP180;42191;47.562;9.686;2022-08-19T00:16:30;96490.00;;;23.40
56286;BMP180;42191;47.562;9.686;2022-08-19T00:18:56;96476.00;;;23.40
56286;BMP180;42191;47.562;9.686;2022-08-19T00:21:26;96487.00;;;23.40
56286;BMP180;42191;47.562;9.686;2022-08-19T00:23:56;96472.00;;;23.40
56286;BMP180;42191;47.562;9.686;2022-08-19T00:26:24;96485.00;;;23.40
56286;BMP180;42191;47.562;9.686;2022-08-19T00:28:51;96489.00;;;23.40
56286;BMP180;42191;47.562;9.686;2022-08-19T00:31:17;96485.00;;;23.30
56286;BMP180;42191;47.562;9.686;2022-08-19T00:33:43;96477.00;;;23.30
56286;BMP180;42191;47.562;9.686;2022-08-19T00:36:10;96466.00;;;23.30
56286;BMP180;42191;47.562;9.686;2022-08-19T00:38:38;96465.00;;;23.30
56286;BMP180;42191;47.562;9.686;2022-08-19T00:41:07;96470.00;;;23.30
56286;BMP180;42191;47.562;9.686;2022-08-19T00:43:34;96474.00;;;23.30
56286;BMP180;42191;47.562;9.686;2022-08-19T00:46:00;96473.00;;;23.30
56286;BMP180;42191;47.562;9.686;2022-08-19T00:48:31;96460.00;;;23.20
56286;BMP180;42191;47.562;9.686;2022-08-19T00:50:58;96472.00;;;23.20
56286;BMP180;42191;47.562;9.686;2022-08-19T00:53:27;96480.00;;;23.20
56286;BMP180;42191;47.562;9.686;2022-08-19T00:55:56;96477.00;;;23.20
56286;BMP180;42191;47.562;9.686;2022-08-19T00:58:30;96467.00;;;23.20
56286;BMP180;42191;47.562;9.686;2022-08-19T01:00:56;96474.00;;;23.20
56286;BMP180;42191;47.562;9.686;2022-08-19T01:03:23;96462.00;;;23.20
56286;BMP180;42191;47.562;9.686;2022-08-19T01:05:51;96446.00;;;23.20
56286;BMP180;42191;47.562;9.686;2022-08-19T01:08:19;96435.00;;;23.20
56286;BMP180;42191;47.562;9.686;2022-08-19T01:10:55;96435.00;;;23.20
56286;BMP180;42191;47.562;9.686;2022-08-19T01:13:25;96426.00;;;23.20
56286;BMP180;42191;47.562;9.686;2022-08-19T01:16:12;96420.00;;;23.10
56286;BMP180;42191;47.562;9.686;2022-08-19T01:18:41;96417.00;;;23.10
56286;BMP180;42191;47.562;9.686;2022-08-19T01:21:18;96432.00;;;23.10
56286;BMP180;42191;47.562;9.686;2022-08-19T01:23:45;96439.00;;;23.10
56286;BMP180;42191;47.562;9.686;2022-08-19T01:26:23;96434.00;;;23.00
56286;BMP180;42191;47.562;9.686;2022-08-19T01:28:52;96440.00;;;23.00
56286;BMP180;42191;47.562;9.686;2022-08-19T01:31:22;96431.00;;;22.90
56286;BMP180;42191;47.562;9.686;2022-08-19T01:33:50;96444.00;;;22.90
56286;BMP180;42191;47.562;9.686;2022-08-19T01:36:44;96445.00;;;22.80
56286;BMP180;42191;47.562;9.686;2022-08-19T01:39:17;96448.00;;;22.80
56286;BMP180;42191;47.562;9.686;2022-08-19T01:41:44;96462.00;;;22.70
56286;BMP180;42191;47.562;9.686;2022-08-19T01:44:10;96457.00;;;22.60
56286;BMP180;42191;47.562;9.686;2022-08-19T01:46:37;96470.00;;;22.50
56286;BMP180;42191;47.562;9.686;2022-08-19T01:49:04;96452.00;;;22.50
56286;BMP180;42191;47.562;9.686;2022-08-19T01:51:31;96453.00;;;22.40
56286;BMP180;42191;47.562;9.686;2022-08-19T01:53:57;96446.00;;;22.30
56286;BMP180;42191;47.562;9.686;2022-08-19T01:56:24;96439.00;;;22.30
56286;BMP180;42191;47.562;9.686;2022-08-19T01:58:54;96439.00;;;22.20
56286;BMP180;42191;47.562;9.686;2022-08-19T02:01:21;96436.00;;;22.10
56286;BMP180;42191;47.562;9.686;2022-08-19T02:03:47;96436.00;;;22.00
56286;BMP180;42191;47.562;9.686;2022-08-19T02:06:13;96430.00;;;22.00
56286;BMP180;42191;47.562;9.686;2022-08-19T02:08:40;96428.00;;;21.90
56286;BMP180;42191;47.562;9.686;2022-08-19T02:11:07;96441.00;;;21.80
56286;BMP180;42191;47.562;9.686;2022-08-19T02:13:34;96448.00;;;21.70
56286;BMP180;42191;47.562;9.686;2022-08-19T02:16:00;96452.00;;;21.70
56286;BMP180;42191;47.562;9.686;2022-08-19T02:18:27;96453.00;;;21.60
56286;BMP180;42191;47.562;9.686;2022-08-19T02:20:53;96451.00;;;21.60
56286;BMP180;42191;47.562;9.686;2022-08-19T02:23:19;96448.00;;;21.60
56286;BMP180;42191;47.562;9.686;2022-08-19T02:25:47;96438.00;;;21.50
56286;BMP180;42191;47.562;9.686;2022-08-19T02:28:14;96446.00;;;21.50
56286;BMP180;42191;47.562;9.686;2022-08-19T02:30:41;96438.00;;;21.50
56286;BMP180;42191;47.562;9.686;2022-08-19T02:33:08;96440.00;;;21.50
56286;BMP180;42191;47.562;9.686;2022-08-19T02:35:34;96449.00;;;21.40
56286;BMP180;42191;47.562;9.686;2022-08-19T02:38:00;96442.00;;;21.40
56286;BMP180;42191;47.562;9.686;2022-08-19T02:40:53;96457.00;;;21.40
56286;BMP180;42191;47.562;9.686;2022-08-19T02:43:20;96457.00;;;21.40
56286;BMP180;42191;47.562;9.686;2022-08-19T02:45:48;96445.00;;;21.40
56286;BMP180;42191;47.562;9.686;2022-08-19T02:48:16;96452.00;;;21.40
56286;BMP180;42191;47.562;9.686;2022-08-19T02:50:43;96455.00;;;21.40
56286;BMP180;42191;47.562;9.686;2022-08-19T02:53:10;96451.00;;;21.40
56286;BMP180;42191;47.562;9.686;2022-08-19T02:55:41;96453.00;;;21.40
56286;BMP180;42191;47.562;9.686;2022-08-19T02:58:07;96443.00;;;21.40
56286;BMP180;42191;47.562;9.686;2022-08-19T03:00:33;96441.00;;;21.40
56286;BMP180;42191;47.562;9.686;2022-08-19T03:02:59;96444.00;;;21.40
56286;BMP180;42191;47.562;9.686;2022-08-19T03:05:26;96455.00;;;21.40
56286;BMP180;42191;47.562;9.686;2022-08-19T03:07:53;96456.00;;;21.40
56286;BMP180;42191;47.562;9.686;2022-08-19T03:10:19;96453.00;;;21.50
56286;BMP180;42191;47.562;9.686;2022-08-19T03:12:46;96443.00;;;21.50
56286;BMP180;42191;47.562;9.686;2022-08-19T03:15:12;96447.00;;;21.50
56286;BMP180;42191;47.562;9.686;2022-08-19T03:17:38;96445.00;;;21.50
56286;BMP180;42191;47.562;9.686;2022-08-19T03:20:05;96443.00;;;21.50
56286;BMP180;42191;47.562;9.686;2022-08-19T03:22:31;96434.00;;;21.60
56286;BMP180;42191;47.562;9.686;2022-08-19T03:24:57;96440.00;;;21.60
56286;BMP180;42191;47.562;9.686;2022-08-19T03:27:24;96445.00;;;21.60
56286;BMP180;42191;47.562;9.686;2022-08-19T03:29:51;96447.00;;;21.60
56286;BMP180;42191;47.562;9.686;2022-08-19T03:32:17;96441.00;;;21.60
56286;BMP180;42191;47.562;9.686;2022-08-19T03:34:43;96447.00;;;21.60
56286;BMP180;42191;47.562;9.686;2022-08-19T03:37:11;96434.00;;;21.60
56286;BMP180;42191;47.562;9.686;2022-08-19T03:39:41;96437.00;;;21.60
56286;BMP180;42191;47.562;9.686;2022-08-19T03:42:08;96441.00;;;21.60
56286;BMP180;42191;47.562;9.686;2022-08-19T03:44:34;96433.00;;;21.60
56286;BMP180;42191;47.562;9.686;2022-08-19T03:47:03;96437.00;;;21.70
56286;BMP180;42191;47.562;9.686;2022-08-19T03:49:31;96428.00;;;21.70
56286;BMP180;42191;47.562;9.686;2022-08-19T03:51:59;96422.00;;;21.70
56286;BMP180;42191;47.562;9.686;2022-08-19T03:54:28;96419.00;;;21.70
56286;BMP180;42191;47.562;9.686;2022-08-19T03:56:55;96414.00;;;21.70
56286;BMP180;42191;47.562;9.686;2022-08-19T03:59:31;96415.00;;;21.70
56286;BMP180;42191;47.562;9.686;2022-08-19T04:01:59;96423.00;;;21.70
56286;BMP180;42191;47.562;9.686;2022-08-19T04:04:26;96410.00;;;21.70
56286;BMP180;42191;47.562;9.686;2022-08-19T04:06:53;96403.00;;;21.80
56286;BMP180;42191;47.562;9.686;2022-08-19T04:09:19;96396.00;;;21.80
56286;BMP180;42191;47.562;9.686;2022-08-19T04:11:49;96406.00;;;21.80
56286;BMP180;42191;47.562;9.686;2022-08-19T04:14:18;96389.00;;;21.80
56286;BMP180;42191;47.562;9.686;2022-08-19T04:16:45;96388.00;;;21.80
56286;BMP180;42191;47.562;9.686;2022-08-19T04:19:12;96395.00;;;21.80
56286;BMP180;42191;47.562;9.686;2022-08-19T04:21:39;96417.00;;;21.80
56286;BMP180;42191;47.562;9.686;2022-08-19T04:24:05;96418.00;;;21.80
56286;BMP180;42191;47.562;9.686;2022-08-19T04:26:35;96411.00;;;21.80
56286;BMP180;42191;47.562;9.686;2022-08-19T04:29:10;96422.00;;;21.80
56286;BMP180;42191;47.562;9.686;2022-08-19T04:31:36;96439.00;;;21.80
56286;BMP180;42191;47.562;9.686;2022-08-19T04:34:05;96438.00;;;21.80
56286;BMP180;42191;47.562;9.686;2022-08-19T04:36:35;96448.00;;;21.80
56286;BMP180;42191;47.562;9.686;2022-08-19T04:39:05;96450.00;;;21.90
56286;BMP180;42191;47.562;9.686;2022-08-19T04:41:32;96451.00;;;21.90
56286;BMP180;42191;47.562;9.686;2022-08-19T04:44:16;96445.00;;;21.90
56286;BMP180;42191;47.562;9.686;2022-08-19T04:46:47;96449.00;;;21.90
56286;BMP180;42191;47.562;9.686;2022-08-19T04:49:14;96452.00;;;21.90
56286;BMP180;42191;47.562;9.686;2022-08-19T04:51:43;96452.00;;;21.90
56286;BMP180;42191;47.562;9.686;2022-08-19T04:54:10;96461.00;;;21.90
56286;BMP180;42191;47.562;9.686;2022-08-19T04:56:36;96466.00;;;21.90
56286;BMP180;42191;47.562;9.686;2022-08-19T04:59:03;96460.00;;;21.90
56286;BMP180;42191;47.562;9.686;2022-08-19T05:01:31;96466.00;;;21.90
56286;BMP180;42191;47.562;9.686;2022-08-19T05:03:59;96477.00;;;21.90
56286;BMP180;42191;47.562;9.686;2022-08-19T05:06:26;96480.00;;;22.00
56286;BMP180;42191;47.562;9.686;2022-08-19T05:08:54;96488.00;;;22.00
56286;BMP180;42191;47.562;9.686;2022-08-19T05:11:29;96480.00;;;22.00
56286;BMP180;42191;47.562;9.686;2022-08-19T05:13:57;96475.00;;;22.00
56286;BMP180;42191;47.562;9.686;2022-08-19T05:16:24;96484.00;;;22.10
56286;BMP180;42191;47.562;9.686;2022-08-19T05:18:51;96476.00;;;22.10
56286;BMP180;42191;47.562;9.686;2022-08-19T05:21:36;96477.00;;;22.10
56286;BMP180;42191;47.562;9.686;2022-08-19T05:24:23;96484.00;;;22.10
56286;BMP180;42191;47.562;9.686;2022-08-19T05:26:51;96488.00;;;22.10
56286;BMP180;42191;47.562;9.686;2022-08-19T05:29:20;96485.00;;;22.10
56286;BMP180;42191;47.562;9.686;2022-08-19T05:31:47;96494.00;;;22.20
56286;BMP180;42191;47.562;9.686;2022-08-19T05:34:16;96486.00;;;22.20
56286;BMP180;42191;47.562;9.686;2022-08-19T05:36:44;96486.00;;;22.20
56286;BMP180;42191;47.562;9.686;2022-08-19T05:39:14;96495.00;;;22.20
56286;BMP180;42191;47.562;9.686;2022-08-19T05:41:49;96491.00;;;22.20
56286;BMP180;42191;47.562;9.686;2022-08-19T05:44:16;96487.00;;;22.30
56286;BMP180;42191;47.562;9.686;2022-08-19T05:46:44;96477.00;;;22.30
56286;BMP180;42191;47.562;9.686;2022-08-19T05:49:14;96483.00;;;22.30
56286;BMP180;42191;47.562;9.686;2022-08-19T05:51:41;96483.00;;;22.30
56286;BMP180;42191;47.562;9.686;2022-08-19T05:54:09;96473.00;;;22.30
56286;BMP180;42191;47.562;9.686;2022-08-19T05:56:37;96473.00;;;22.30
56286;BMP180;42191;47.562;9.686;2022-08-19T05:59:06;96471.00;;;22.30
56286;BMP180;42191;47.562;9.686;2022-08-19T06:01:37;96480.00;;;22.30
56286;BMP180;42191;47.562;9.686;2022-08-19T06:04:05;96467.00;;;22.30
56286;BMP180;42191;47.562;9.686;2022-08-19T06:06:31;96476.00;;;22.30
56286;BMP180;42191;47.562;9.686;2022-08-19T06:09:03;96469.00;;;22.30
56286;BMP180;42191;47.562;9.686;2022-08-19T06:11:47;96480.00;;;22.30
56286;BMP180;42191;47.562;9.686;2022-08-19T06:14:16;96471.00;;;22.30
56286;BMP180;42191;47.562;9.686;2022-08-19T06:16:43;96456.00;;;22.30
56286;BMP180;42191;47.562;9.686;2022-08-19T06:19:15;96469.00;;;22.30
56286;BMP180;42191;47.562;9.686;2022-08-19T06:21:44;96459.00;;;22.30
56286;BMP180;42191;47.562;9.686;2022-08-19T06:24:13;96457.00;;;22.30
56286;BMP180;42191;47.562;9.686;2022-08-19T06:26:42;96444.00;;;22.30
56286;BMP180;42191;47.562;9.686;2022-08-19T06:29:10;96453.00;;;22.30
56286;BMP180;42191;47.562;9.686;2022-08-19T06:31:42;96452.00;;;22.30
56286;BMP180;42191;47.562;9.686;2022-08-19T06:34:10;96471.00;;;22.30
56286;BMP180;42191;47.562;9.686;2022-08-19T06:36:38;96466.00;;;22.30
56286;BMP180;42191;47.562;9.686;2022-08-19T06:39:10;96467.00;;;22.30
56286;BMP180;42191;47.562;9.686;2022-08-19T06:41:38;96459.00;;;22.30
56286;BMP180;42191;47.562;9.686;2022-08-19T06:44:06;96458.00;;;22.30
56286;BMP180;42191;47.562;9.686;2022-08-19T06:46:32;96458.00;;;22.30
56286;BMP180;42191;47.562;9.686;2022-08-19T06:48:59;96466.00;;;22.30
56286;BMP180;42191;47.562;9.686;2022-08-19T06:51:25;96475.00;;;22.40
56286;BMP180;42191;47.562;9.686;2022-08-19T06:53:54;96476.00;;;22.30
56286;BMP180;42191;47.562;9.686;2022-08-19T06:56:23;96479.00;;;22.30
56286;BMP180;42191;47.562;9.686;2022-08-19T06:58:51;96486.00;;;22.30
56286;BMP180;42191;47.562;9.686;2022-08-19T07:01:19;96484.00;;;22.30
56286;BMP180;42191;47.562;9.686;2022-08-19T07:03:45;96476.00;;;22.30
56286;BMP180;42191;47.562;9.686;2022-08-19T07:06:14;96474.00;;;22.30
56286;BMP180;42191;47.562;9.686;2022-08-19T07:08:44;96485.00;;;22.40
56286;BMP180;42191;47.562;9.686;2022-08-19T07:11:12;96475.00;;;22.40
56286;BMP180;42191;47.562;9.686;2022-08-19T07:13:41;96483.00;;;22.40
56286;BMP180;42191;47.562;9.686;2022-08-19T07:16:15;96487.00;;;22.40
56286;BMP180;42191;47.562;9.686;2022-08-19T07:18:41;96493.00;;;22.40
56286;BMP180;42191;47.562;9.686;2022-08-19T07:21:11;96491.00;;;22.50
56286;BMP180;42191;47.562;9.686;2022-08-19T07:23:38;96495.00;;;22.50
56286;BMP180;42191;47.562;9.686;2022-08-19T07:26:09;96507.00;;;22.50
56286;BMP180;42191;47.562;9.686;2022-08-19T07:28:35;96507.00;;;22.60
56286;BMP180;42191;47.562;9.686;2022-08-19T07:31:06;96508.00;;;22.60
56286;BMP180;42191;47.562;9.686;2022-08-19T07:33:33;96501.00;;;22.60
56286;BMP180;42191;47.562;9.686;2022-08-19T07:36:05;96500.00;;;22.60
56286;BMP180;42191;47.562;9.686;2022-08-19T07:38:33;96504.00;;;22.70
56286;BMP180;42191;47.562;9.686;2022-08-19T07:40:59;96500.00;;;22.70
56286;BMP180;42191;47.562;9.686;2022-08-19T07:43:26;96497.00;;;22.80
56286;BMP180;42191;47.562;9.686;2022-08-19T07:45:54;96502.00;;;22.80
56286;BMP180;42191;47.562;9.686;2022-08-19T07:48:28;96505.00;;;22.80
56286;BMP180;42191;47.562;9.686;2022-08-19T07:50:58;96499.00;;;22.80
56286;BMP180;42191;47.562;9.686;2022-08-19T07:53:28;96495.00;;;22.90
56286;BMP180;42191;47.562;9.686;2022-08-19T07:55:55;96506.00;;;22.90
56286;BMP180;42191;47.562;9.686;2022-08-19T07:58:26;96499.00;;;22.90
56286;BMP180;42191;47.562;9.686;2022-08-19T08:00:53;96500.00;;;22.90
56286;BMP180;42191;47.562;9.686;2022-08-19T08:03:20;96504.00;;;23.00
56286;BMP180;42191;47.562;9.686;2022-08-19T08:06:08;96509.00;;;23.00
56286;BMP180;42191;47.562;9.686;2022-08-19T08:08:53;96512.00;;;23.00
56286;BMP180;42191;47.562;9.686;2022-08-19T08:11:38;96511.00;;;23.00
56286;BMP180;42191;47.562;9.686;2022-08-19T08:14:06;96511.00;;;23.10
56286;BMP180;42191;47.562;9.686;2022-08-19T08:16:36;96518.00;;;23.10
56286;BMP180;42191;47.562;9.686;2022-08-19T08:19:04;96530.00;;;23.10
56286;BMP180;42191;47.562;9.686;2022-08-19T08:21:32;96528.00;;;23.00
56286;BMP180;42191;47.562;9.686;2022-08-19T08:23:58;96528.00;;;23.00
56286;BMP180;42191;47.562;9.686;2022-08-19T08:26:25;96536.00;;;23.00
56286;BMP180;42191;47.562;9.686;2022-08-19T08:28:52;96529.00;;;23.00
56286;BMP180;42191;47.562;9.686;2022-08-19T08:31:19;96531.00;;;23.00
56286;BMP180;42191;47.562;9.686;2022-08-19T08:33:46;96533.00;;;23.00
56286;BMP180;42191;47.562;9.686;2022-08-19T08:36:13;96531.00;;;23.10
56286;BMP180;42191;47.562;9.686;2022-08-19T08:38:44;96542.00;;;23.10
56286;BMP180;42191;47.562;9.686;2022-08-19T08:44:00;96548.00;;;23.20
56286;BMP180;42191;47.562;9.686;2022-08-19T08:46:42;96563.00;;;23.20
56286;BMP180;42191;47.562;9.686;2022-08-19T08:49:20;96549.00;;;23.20
56286;BMP180;42191;47.562;9.686;2022-08-19T08:52:22;96559.00;;;23.20
56286;BMP180;42191;47.562;9.686;2022-08-19T08:54:53;96561.00;;;23.20
56286;BMP180;42191;47.562;9.686;2022-08-19T09:00:11;96568.00;;;23.20
56286;BMP180;42191;47.562;9.686;2022-08-19T09:02:39;96560.00;;;23.20
56286;BMP180;42191;47.562;9.686;2022-08-19T09:05:06;96563.00;;;23.20
56286;BMP180;42191;47.562;9.686;2022-08-19T09:10:21;96570.00;;;23.10
56286;BMP180;42191;47.562;9.686;2022-08-19T09:15:35;96568.00;;;23.20
56286;BMP180;42191;47.562;9.686;2022-08-19T09:18:04;96564.00;;;23.20
56286;BMP180;42191;47.562;9.686;2022-08-19T09:20:30;96562.00;;;23.20
56286;BMP180;42191;47.562;9.686;2022-08-19T09:22:57;96570.00;;;23.20
56286;BMP180;42191;47.562;9.686;2022-08-19T09:25:25;96570.00;;;23.20
56286;BMP180;42191;47.562;9.686;2022-08-19T09:27:52;96579.00;;;23.20
56286;BMP180;42191;47.562;9.686;2022-08-19T09:30:25;96577.00;;;23.10
56286;BMP180;42191;47.562;9.686;2022-08-19T09:32:52;96589.00;;;23.20
56286;BMP180;42191;47.562;9.686;2022-08-19T09:35:20;96582.00;;;23.20
56286;BMP180;42191;47.562;9.686;2022-08-19T09:37:48;96585.00;;;23.20
56286;BMP180;42191;47.562;9.686;2022-08-19T09:40:15;96585.00;;;23.20
56286;BMP180;42191;47.562;9.686;2022-08-19T09:42:42;96596.00;;;23.20
56286;BMP180;42191;47.562;9.686;2022-08-19T09:45:20;96585.00;;;23.30
56286;BMP180;42191;47.562;9.686;2022-08-19T09:47:48;96588.00;;;23.30
56286;BMP180;42191;47.562;9.686;2022-08-19T09:50:14;96586.00;;;23.40
56286;BMP180;42191;47.562;9.686;2022-08-19T09:52:40;96593.00;;;23.40
56286;BMP180;42191;47.562;9.686;2022-08-19T09:55:10;96592.00;;;23.40
56286;BMP180;42191;47.562;9.686;2022-08-19T09:57:36;96599.00;;;23.50
56286;BMP180;42191;47.562;9.686;2022-08-19T10:00:05;96600.00;;;23.50
56286;BMP180;42191;47.562;9.686;2022-08-19T10:02:32;96600.00;;;23.50
56286;BMP180;42191;47.562;9.686;2022-08-19T10:04:59;96604.00;;;23.50
56286;BMP180;42191;47.562;9.686;2022-08-19T10:07:43;96601.00;;;23.50
56286;BMP180;42191;47.562;9.686;2022-08-19T10:10:09;96610.00;;;23.50
56286;BMP180;42191;47.562;9.686;2022-08-19T10:12:36;96605.00;;;23.50
56286;BMP180;42191;47.562;9.686;2022-08-19T10:15:04;96606.00;;;23.40
56286;BMP180;42191;47.562;9.686;2022-08-19T10:17:32;96605.00;;;23.30
56286;BMP180;42191;47.562;9.686;2022-08-19T10:19:59;96603.00;;;23.10
56286;BMP180;42191;47.562;9.686;2022-08-19T10:22:25;96603.00;;;23.00
56286;BMP180;42191;47.562;9.686;2022-08-19T10:24:52;96596.00;;;22.90
56286;BMP180;42191;47.562;9.686;2022-08-19T10:27:18;96601.00;;;22.80
56286;BMP180;42191;47.562;9.686;2022-08-19T10:29:45;96599.00;;;22.80
56286;BMP180;42191;47.562;9.686;2022-08-19T10:32:11;96602.00;;;22.70
56286;BMP180;42191;47.562;9.686;2022-08-19T10:34:38;96610.00;;;22.70
56286;BMP180;42191;47.562;9.686;2022-08-19T10:37:05;96618.00;;;22.60
56286;BMP180;42191;47.562;9.686;2022-08-19T10:39:35;96597.00;;;22.60
56286;BMP180;42191;47.562;9.686;2022-08-19T10:42:06;96608.00;;;22.60
56286;BMP180;42191;47.562;9.686;2022-08-19T10:44:33;96604.00;;;22.60
56286;BMP180;42191;47.562;9.686;2022-08-19T10:47:02;96598.00;;;22.60
56286;BMP180;42191;47.562;9.686;2022-08-19T10:49:29;96608.00;;;22.60
56286;BMP180;42191;47.562;9.686;2022-08-19T10:51:56;96602.00;;;22.60
56286;BMP180;42191;47.562;9.686;2022-08-19T10:54:41;96605.00;;;22.60
56286;BMP180;42191;47.562;9.686;2022-08-19T10:57:29;96603.00;;;22.60
56286;BMP180;42191;47.562;9.686;2022-08-19T10:59:56;96606.00;;;22.60
56286;BMP180;42191;47.562;9.686;2022-08-19T11:02:23;96605.00;;;22.60
56286;BMP180;42191;47.562;9.686;2022-08-19T11:04:49;96607.00;;;22.60
56286;BMP180;42191;47.562;9.686;2022-08-19T11:07:17;96598.00;;;22.60
56286;BMP180;42191;47.562;9.686;2022-08-19T11:09:43;96608.00;;;22.60
56286;BMP180;42191;47.562;9.686;2022-08-19T11:12:10;96608.00;;;22.60
56286;BMP180;42191;47.562;9.686;2022-08-19T11:14:38;96609.00;;;22.60
56286;BMP180;42191;47.562;9.686;2022-08-19T11:17:05;96603.00;;;22.60
56286;BMP180;42191;47.562;9.686;2022-08-19T11:19:31;96602.00;;;22.60
56286;BMP180;42191;47.562;9.686;2022-08-19T11:21:57;96605.00;;;22.60
56286;BMP180;42191;47.562;9.686;2022-08-19T11:24:27;96604.00;;;22.60
56286;BMP180;42191;47.562;9.686;2022-08-19T11:26:55;96604.00;;;22.50
56286;BMP180;42191;47.562;9.686;2022-08-19T11:29:25;96598.00;;;22.50
56286;BMP180;42191;47.562;9.686;2022-08-19T11:31:53;96600.00;;;22.40
56286;BMP180;42191;47.562;9.686;2022-08-19T11:34:26;96596.00;;;22.40
56286;BMP180;42191;47.562;9.686;2022-08-19T11:36:55;96598.00;;;22.30
56286;BMP180;42191;47.562;9.686;2022-08-19T11:39:25;96605.00;;;22.30
56286;BMP180;42191;47.562;9.686;2022-08-19T11:41:52;96590.00;;;22.20
56286;BMP180;42191;47.562;9.686;2022-08-19T11:44:18;96601.00;;;22.20
56286;BMP180;42191;47.562;9.686;2022-08-19T11:46:45;96589.00;;;22.10
56286;BMP180;42191;47.562;9.686;2022-08-19T11:49:14;96595.00;;;22.10
56286;BMP180;42191;47.562;9.686;2022-08-19T11:51:41;96596.00;;;22.10
56286;BMP180;42191;47.562;9.686;2022-08-19T11:54:15;96617.00;;;22.10
56286;BMP180;42191;47.562;9.686;2022-08-19T11:56:43;96601.00;;;22.10
56286;BMP180;42191;47.562;9.686;2022-08-19T11:59:09;96615.00;;;22.10
56286;BMP180;42191;47.562;9.686;2022-08-19T12:01:36;96609.00;;;22.10
56286;BMP180;42191;47.562;9.686;2022-08-19T12:04:02;96609.00;;;22.10
56286;BMP180;42191;47.562;9.686;2022-08-19T12:06:32;96607.00;;;22.10
56286;BMP180;42191;47.562;9.686;2022-08-19T12:09:05;96611.00;;;22.10
56286;BMP180;42191;47.562;9.686;2022-08-19T12:11:31;96608.00;;;22.10
56286;BMP180;42191;47.562;9.686;2022-08-19T12:13:58;96605.00;;;22.10
56286;BMP180;42191;47.562;9.686;2022-08-19T12:16:27;96608.00;;;22.10
56286;BMP180;42191;47.562;9.686;2022-08-19T12:18:54;96613.00;;;22.10
56286;BMP180;42191;47.562;9.686;2022-08-19T12:21:23;96612.00;;;22.10
56286;BMP180;42191;47.562;9.686;2022-08-19T12:23:51;96610.00;;;22.10
56286;BMP180;42191;47.562;9.686;2022-08-19T12:26:18;96623.00;;;22.10
56286;BMP180;42191;47.562;9.686;2022-08-19T12:28:44;96619.00;;;22.10
56286;BMP180;42191;47.562;9.686;2022-08-19T12:31:11;96622.00;;;22.10
56286;BMP180;42191;47.562;9.686;2022-08-19T12:33:38;96619.00;;;22.10
56286;BMP180;42191;47.562;9.686;2022-08-19T12:36:07;96629.00;;;22.10
56286;BMP180;42191;47.562;9.686;2022-08-19T12:38:33;96621.00;;;22.10
56286;BMP180;42191;47.562;9.686;2022-08-19T12:41:03;96624.00;;;22.10
56286;BMP180;42191;47.562;9.686;2022-08-19T12:43:35;96639.00;;;22.00
56286;BMP180;42191;47.562;9.686;2022-08-19T12:46:03;96624.00;;;22.00
56286;BMP180;42191;47.562;9.686;2022-08-19T12:48:30;96634.00;;;22.00
56286;BMP180;42191;47.562;9.686;2022-08-19T12:50:56;96628.00;;;22.00
56286;BMP180;42191;47.562;9.686;2022-08-19T12:53:23;96629.00;;;22.00
56286;BMP180;42191;47.562;9.686;2022-08-19T12:55:55;96640.00;;;22.00
56286;BMP180;42191;47.562;9.686;2022-08-19T12:58:22;96644.00;;;22.00
56286;BMP180;42191;47.562;9.686;2022-08-19T13:00:49;96643.00;;;22.00
56286;BMP180;42191;47.562;9.686;2022-08-19T13:03:15;96640.00;;;22.00
56286;BMP180;42191;47.562;9.686;2022-08-19T13:05:41;96657.00;;;22.00
56286;BMP180;42191;47.562;9.686;2022-08-19T13:08:07;96651.00;;;22.00
56286;BMP180;42191;47.562;9.686;2022-08-19T13:10:34;96650.00;;;22.00
56286;BMP180;42191;47.562;9.686;2022-08-19T13:13:03;96640.00;;;22.10
56286;BMP180;42191;47.562;9.686;2022-08-19T13:15:34;96650.00;;;22.00
56286;BMP180;42191;47.562;9.686;2022-08-19T13:18:01;96676.00;;;22.00
56286;BMP180;42191;47.562;9.686;2022-08-19T13:20:27;96665.00;;;22.00
56286;BMP180;42191;47.562;9.686;2022-08-19T13:22:54;96675.00;;;22.10
56286;BMP180;42191;47.562;9.686;2022-08-19T13:25:21;96669.00;;;22.00
56286;BMP180;42191;47.562;9.686;2022-08-19T13:27:48;96671.00;;;22.00
56286;BMP180;42191;47.562;9.686;2022-08-19T13:30:17;96666.00;;;22.00
56286;BMP180;42191;47.562;9.686;2022-08-19T13:33:03;96677.00;;;22.00
56286;BMP180;42191;47.562;9.686;2022-08-19T13:38:11;96671.00;;;22.00
56286;BMP180;42191;47.562;9.686;2022-08-19T13:40:37;96692.00;;;22.00
56286;BMP180;42191;47.562;9.686;2022-08-19T13:43:05;96673.00;;;22.00
56286;BMP180;42191;47.562;9.686;2022-08-19T13:45:33;96682.00;;;22.00
56286;BMP180;42191;47.562;9.686;2022-08-19T13:48:01;96687.00;;;21.90
56286;BMP180;42191;47.562;9.686;2022-08-19T13:50:30;96679.00;;;21.90
56286;BMP180;42191;47.562;9.686;2022-08-19T13:52:57;96672.00;;;21.90
56286;BMP180;42191;47.562;9.686;2022-08-19T13:55:24;96695.00;;;21.90
56286;BMP180;42191;47.562;9.686;2022-08-19T13:57:52;96684.00;;;21.90
56286;BMP180;42191;47.562;9.686;2022-08-19T14:00:20;96685.00;;;21.90
56286;BMP180;42191;47.562;9.686;2022-08-19T14:02:50;96683.00;;;21.90
56286;BMP180;42191;47.562;9.686;2022-08-19T14:05:17;96696.00;;;21.90
56286;BMP180;42191;47.562;9.686;2022-08-19T14:07:43;96688.00;;;21.90
56286;BMP180;42191;47.562;9.686;2022-08-19T14:10:11;96700.00;;;21.90
56286;BMP180;42191;47.562;9.686;2022-08-19T14:12:37;96701.00;;;21.90
56286;BMP180;42191;47.562;9.686;2022-08-19T14:15:05;96706.00;;;22.00
56286;BMP180;42191;47.562;9.686;2022-08-19T14:17:32;96709.00;;;21.90
56286;BMP180;42191;47.562;9.686;2022-08-19T14:20:03;96713.00;;;21.90
56286;BMP180;42191;47.562;9.686;2022-08-19T14:22:31;96709.00;;;22.00
56286;BMP180;42191;47.562;9.686;2022-08-19T14:24:57;96710.00;;;21.90
56286;BMP180;42191;47.562;9.686;2022-08-19T14:27:24;96716.00;;;21.90
56286;BMP180;42191;47.562;9.686;2022-08-19T14:29:51;96723.00;;;21.90
56286;BMP180;42191;47.562;9.686;2022-08-19T14:32:18;96725.00;;;21.90